sensor_id;sensor_type;location;lat;lon;timestamp;P1;durP1;ratioP1;P2;durP2;ratioP2
9188;SDS011;34313;50.780;6.084;2022-10-04T00:04:59;5.23;;;3.03;;
9188;SDS011;34313;50.780;6.084;2022-10-04T00:07:34;7.73;;;3.37;;
9188;SDS011;34313;50.780;6.084;2022-10-04T00:13:04;7.23;;;3.30;;
9188;SDS011;34313;50.780;6.084;2022-10-04T00:15:39;5.93;;;3.27;;
9188;SDS011;34313;50.780;6.084;2022-10-04T00:25:49;8.60;;;3.33;;
9188;SDS011;34313;50.780;6.084;2022-10-04T00:30:51;5.77;;;3.30;;
9188;SDS011;34313;50.780;6.084;2022-10-04T00:33:36;5.37;;;3.00;;
9188;SDS011;34313;50.780;6.084;2022-10-04T00:39:03;5.47;;;3.17;;
9188;SDS011;34313;50.780;6.084;2022-10-04T00:46:45;5.13;;;3.43;;
9188;SDS011;34313;50.780;6.084;2022-10-04T00:49:12;7.43;;;3.40;;
9188;SDS011;34313;50.780;6.084;2022-10-04T00:51:43;7.63;;;3.83;;
9188;SDS011;34313;50.780;6.084;2022-10-04T00:54:21;7.30;;;3.73;;
9188;SDS011;34313;50.780;6.084;2022-10-04T00:56:55;5.30;;;3.43;;
9188;SDS011;34313;50.780;6.084;2022-10-04T01:02:00;5.90;;;3.07;;
9188;SDS011;34313;50.780;6.084;2022-10-04T01:04:37;4.93;;;3.13;;
9188;SDS011;34313;50.780;6.084;2022-10-04T01:07:06;8.73;;;3.47;;
9188;SDS011;34313;50.780;6.084;2022-10-04T01:09:35;9.23;;;3.20;;
9188;SDS011;34313;50.780;6.084;2022-10-04T01:12:16;11.80;;;4.07;;
9188;SDS011;34313;50.780;6.084;2022-10-04T01:15:04;7.10;;;3.40;;
9188;SDS011;34313;50.780;6.084;2022-10-04T01:17:33;5.33;;;3.30;;
9188;SDS011;34313;50.780;6.084;2022-10-04T01:19:58;7.70;;;3.13;;
9188;SDS011;34313;50.780;6.084;2022-10-04T01:22:57;5.60;;;3.57;;
9188;SDS011;34313;50.780;6.084;2022-10-04T01:28:13;5.80;;;3.60;;
9188;SDS011;34313;50.780;6.084;2022-10-04T01:30:39;6.43;;;3.00;;
9188;SDS011;34313;50.780;6.084;2022-10-04T01:33:05;5.43;;;3.53;;
9188;SDS011;34313;50.780;6.084;2022-10-04T01:35:31;3.73;;;3.43;;
9188;SDS011;34313;50.780;6.084;2022-10-04T01:38:00;4.30;;;3.30;;
9188;SDS011;34313;50.780;6.084;2022-10-04T01:40:27;6.70;;;3.47;;
9188;SDS011;34313;50.780;6.084;2022-10-04T01:42:56;3.83;;;3.40;;
9188;SDS011;34313;50.780;6.084;2022-10-04T01:45:42;10.13;;;2.93;;
9188;SDS011;34313;50.780;6.084;2022-10-04T01:48:14;5.63;;;3.10;;
9188;SDS011;34313;50.780;6.084;2022-10-04T01:50:50;4.50;;;3.33;;
9188;SDS011;34313;50.780;6.084;2022-10-04T01:53:33;5.00;;;3.43;;
9188;SDS011;34313;50.780;6.084;2022-10-04T01:56:22;6.20;;;3.30;;
9188;SDS011;34313;50.780;6.084;2022-10-04T01:58:59;6.30;;;3.60;;
9188;SDS011;34313;50.780;6.084;2022-10-04T02:01:29;7.47;;;3.00;;
9188;SDS011;34313;50.780;6.084;2022-10-04T02:04:04;5.47;;;3.07;;
9188;SDS011;34313;50.780;6.084;2022-10-04T02:06:37;5.60;;;3.33;;
9188;SDS011;34313;50.780;6.084;2022-10-04T02:09:09;4.93;;;3.40;;
9188;SDS011;34313;50.780;6.084;2022-10-04T02:11:38;3.80;;;3.40;;
9188;SDS011;34313;50.780;6.084;2022-10-04T02:14:10;5.30;;;3.60;;
9188;SDS011;34313;50.780;6.084;2022-10-04T02:16:40;10.73;;;3.33;;
9188;SDS011;34313;50.780;6.084;2022-10-04T02:19:09;6.43;;;3.87;;
9188;SDS011;34313;50.780;6.084;2022-10-04T02:21:36;8.10;;;4.17;;
9188;SDS011;34313;50.780;6.084;2022-10-04T02:24:02;8.10;;;3.70;;
9188;SDS011;34313;50.780;6.084;2022-10-04T02:26:30;5.23;;;3.73;;
9188;SDS011;34313;50.780;6.084;2022-10-04T02:28:56;4.30;;;3.50;;
9188;SDS011;34313;50.780;6.084;2022-10-04T02:31:21;8.10;;;3.60;;
9188;SDS011;34313;50.780;6.084;2022-10-04T02:34:06;7.77;;;3.70;;
9188;SDS011;34313;50.780;6.084;2022-10-04T02:36:32;6.93;;;3.57;;
9188;SDS011;34313;50.780;6.084;2022-10-04T02:39:03;5.27;;;3.50;;
9188;SDS011;34313;50.780;6.084;2022-10-04T02:41:43;6.23;;;3.67;;
9188;SDS011;34313;50.780;6.084;2022-10-04T02:44:17;6.83;;;4.43;;
9188;SDS011;34313;50.780;6.084;2022-10-04T02:50:23;6.47;;;3.87;;
9188;SDS011;34313;50.780;6.084;2022-10-04T02:52:47;11.13;;;3.73;;
9188;SDS011;34313;50.780;6.084;2022-10-04T02:55:28;10.60;;;4.37;;
9188;SDS011;34313;50.780;6.084;2022-10-04T02:57:55;5.67;;;4.30;;
9188;SDS011;34313;50.780;6.084;2022-10-04T03:00:24;6.20;;;4.03;;
9188;SDS011;34313;50.780;6.084;2022-10-04T03:06:07;5.77;;;4.00;;
9188;SDS011;34313;50.780;6.084;2022-10-04T03:11:20;9.80;;;4.83;;
9188;SDS011;34313;50.780;6.084;2022-10-04T03:13:48;14.10;;;4.33;;
9188;SDS011;34313;50.780;6.084;2022-10-04T03:16:16;5.57;;;3.97;;
9188;SDS011;34313;50.780;6.084;2022-10-04T03:18:43;7.80;;;4.20;;
9188;SDS011;34313;50.780;6.084;2022-10-04T03:21:11;6.97;;;4.63;;
9188;SDS011;34313;50.780;6.084;2022-10-04T03:23:39;6.63;;;4.13;;
9188;SDS011;34313;50.780;6.084;2022-10-04T03:28:58;9.73;;;4.50;;
9188;SDS011;34313;50.780;6.084;2022-10-04T03:31:25;6.13;;;5.07;;
9188;SDS011;34313;50.780;6.084;2022-10-04T03:33:55;8.00;;;4.80;;
9188;SDS011;34313;50.780;6.084;2022-10-04T03:36:22;9.03;;;5.90;;
9188;SDS011;34313;50.780;6.084;2022-10-04T03:38:51;6.90;;;4.60;;
9188;SDS011;34313;50.780;6.084;2022-10-04T03:41:19;13.17;;;5.67;;
9188;SDS011;34313;50.780;6.084;2022-10-04T03:43:46;8.17;;;5.27;;
9188;SDS011;34313;50.780;6.084;2022-10-04T03:46:14;11.10;;;5.47;;
9188;SDS011;34313;50.780;6.084;2022-10-04T03:48:45;8.37;;;5.57;;
9188;SDS011;34313;50.780;6.084;2022-10-04T03:51:23;9.67;;;5.10;;
9188;SDS011;34313;50.780;6.084;2022-10-04T03:53:54;11.33;;;5.20;;
9188;SDS011;34313;50.780;6.084;2022-10-04T03:56:24;10.43;;;6.30;;
9188;SDS011;34313;50.780;6.084;2022-10-04T03:58:53;10.83;;;6.13;;
9188;SDS011;34313;50.780;6.084;2022-10-04T04:01:41;7.50;;;5.13;;
9188;SDS011;34313;50.780;6.084;2022-10-04T04:07:02;9.10;;;5.57;;
9188;SDS011;34313;50.780;6.084;2022-10-04T04:12:08;9.90;;;5.57;;
9188;SDS011;34313;50.780;6.084;2022-10-04T04:14:37;14.07;;;6.10;;
9188;SDS011;34313;50.780;6.084;2022-10-04T04:19:52;9.13;;;5.40;;
9188;SDS011;34313;50.780;6.084;2022-10-04T04:22:21;9.37;;;5.30;;
9188;SDS011;34313;50.780;6.084;2022-10-04T04:24:47;8.07;;;5.50;;
9188;SDS011;34313;50.780;6.084;2022-10-04T04:27:15;8.70;;;5.50;;
9188;SDS011;34313;50.780;6.084;2022-10-04T04:29:44;9.60;;;6.60;;
9188;SDS011;34313;50.780;6.084;2022-10-04T04:32:16;14.10;;;6.43;;
9188;SDS011;34313;50.780;6.084;2022-10-04T04:34:51;9.00;;;6.20;;
9188;SDS011;34313;50.780;6.084;2022-10-04T04:37:21;11.63;;;6.80;;
9188;SDS011;34313;50.780;6.084;2022-10-04T04:39:48;10.93;;;6.63;;
9188;SDS011;34313;50.780;6.084;2022-10-04T04:42:20;8.07;;;5.77;;
9188;SDS011;34313;50.780;6.084;2022-10-04T04:44:55;11.40;;;7.00;;
9188;SDS011;34313;50.780;6.084;2022-10-04T04:47:26;13.77;;;6.33;;
9188;SDS011;34313;50.780;6.084;2022-10-04T04:49:55;12.70;;;6.70;;
9188;SDS011;34313;50.780;6.084;2022-10-04T04:52:24;11.57;;;6.37;;
9188;SDS011;34313;50.780;6.084;2022-10-04T04:54:53;12.80;;;7.17;;
9188;SDS011;34313;50.780;6.084;2022-10-04T04:57:20;17.00;;;7.30;;
9188;SDS011;34313;50.780;6.084;2022-10-04T04:59:46;10.60;;;7.40;;
9188;SDS011;34313;50.780;6.084;2022-10-04T05:02:30;12.73;;;6.90;;
9188;SDS011;34313;50.780;6.084;2022-10-04T05:05:17;9.73;;;5.97;;
9188;SDS011;34313;50.780;6.084;2022-10-04T05:07:45;14.00;;;7.10;;
9188;SDS011;34313;50.780;6.084;2022-10-04T05:10:18;19.67;;;7.77;;
9188;SDS011;34313;50.780;6.084;2022-10-04T05:12:45;10.77;;;6.67;;
9188;SDS011;34313;50.780;6.084;2022-10-04T05:15:11;14.03;;;6.30;;
9188;SDS011;34313;50.780;6.084;2022-10-04T05:17:36;10.37;;;6.70;;
9188;SDS011;34313;50.780;6.084;2022-10-04T05:20:02;11.10;;;7.17;;
9188;SDS011;34313;50.780;6.084;2022-10-04T05:22:29;11.60;;;7.23;;
9188;SDS011;34313;50.780;6.084;2022-10-04T05:24:57;12.17;;;6.37;;
9188;SDS011;34313;50.780;6.084;2022-10-04T05:27:38;14.47;;;7.17;;
9188;SDS011;34313;50.780;6.084;2022-10-04T05:38:48;14.50;;;6.80;;
9188;SDS011;34313;50.780;6.084;2022-10-04T05:41:30;15.00;;;7.63;;
9188;SDS011;34313;50.780;6.084;2022-10-04T05:44:16;22.43;;;8.57;;
9188;SDS011;34313;50.780;6.084;2022-10-04T05:46:53;9.20;;;6.23;;
9188;SDS011;34313;50.780;6.084;2022-10-04T05:49:24;15.40;;;7.60;;
9188;SDS011;34313;50.780;6.084;2022-10-04T05:51:55;15.17;;;8.27;;
9188;SDS011;34313;50.780;6.084;2022-10-04T05:54:27;15.33;;;7.63;;
9188;SDS011;34313;50.780;6.084;2022-10-04T06:02:40;14.53;;;7.13;;
9188;SDS011;34313;50.780;6.084;2022-10-04T06:05:27;16.47;;;7.77;;
9188;SDS011;34313;50.780;6.084;2022-10-04T06:08:00;13.33;;;7.13;;
9188;SDS011;34313;50.780;6.084;2022-10-04T06:13:30;12.77;;;7.90;;
9188;SDS011;34313;50.780;6.084;2022-10-04T06:24:34;13.13;;;7.87;;
9188;SDS011;34313;50.780;6.084;2022-10-04T06:27:03;15.03;;;7.67;;
9188;SDS011;34313;50.780;6.084;2022-10-04T06:29:41;13.83;;;7.97;;
9188;SDS011;34313;50.780;6.084;2022-10-04T06:32:28;13.23;;;7.90;;
9188;SDS011;34313;50.780;6.084;2022-10-04T06:56:56;13.43;;;7.33;;
9188;SDS011;34313;50.780;6.084;2022-10-04T07:02:37;14.97;;;7.80;;
9188;SDS011;34313;50.780;6.084;2022-10-04T07:05:09;11.67;;;6.70;;
9188;SDS011;34313;50.780;6.084;2022-10-04T07:07:54;14.63;;;6.50;;
9188;SDS011;34313;50.780;6.084;2022-10-04T07:10:32;12.60;;;6.50;;
9188;SDS011;34313;50.780;6.084;2022-10-04T07:18:24;9.80;;;6.00;;
9188;SDS011;34313;50.780;6.084;2022-10-04T07:20:57;9.93;;;5.90;;
9188;SDS011;34313;50.780;6.084;2022-10-04T07:23:30;9.93;;;4.70;;
9188;SDS011;34313;50.780;6.084;2022-10-04T07:26:13;8.30;;;3.83;;
9188;SDS011;34313;50.780;6.084;2022-10-04T07:28:45;8.40;;;3.40;;
9188;SDS011;34313;50.780;6.084;2022-10-04T07:31:31;7.50;;;3.47;;
9188;SDS011;34313;50.780;6.084;2022-10-04T07:34:02;7.03;;;3.77;;
9188;SDS011;34313;50.780;6.084;2022-10-04T07:44:24;6.33;;;3.37;;
9188;SDS011;34313;50.780;6.084;2022-10-04T07:47:08;8.00;;;4.10;;
9188;SDS011;34313;50.780;6.084;2022-10-04T07:49:37;4.97;;;3.50;;
9188;SDS011;34313;50.780;6.084;2022-10-04T07:52:09;6.40;;;3.50;;
9188;SDS011;34313;50.780;6.084;2022-10-04T08:00:21;7.83;;;3.37;;
9188;SDS011;34313;50.780;6.084;2022-10-04T08:05:37;7.13;;;3.30;;
9188;SDS011;34313;50.780;6.084;2022-10-04T08:11:08;6.37;;;3.23;;
9188;SDS011;34313;50.780;6.084;2022-10-04T08:14:03;3.47;;;3.03;;
9188;SDS011;34313;50.780;6.084;2022-10-04T08:16:36;5.33;;;3.13;;
9188;SDS011;34313;50.780;6.084;2022-10-04T08:19:41;4.97;;;3.17;;
9188;SDS011;34313;50.780;6.084;2022-10-04T08:24:48;4.03;;;2.57;;
9188;SDS011;34313;50.780;6.084;2022-10-04T08:30:45;5.30;;;2.83;;
9188;SDS011;34313;50.780;6.084;2022-10-04T08:39:22;6.00;;;3.20;;
9188;SDS011;34313;50.780;6.084;2022-10-04T09:16:02;5.10;;;2.57;;
9188;SDS011;34313;50.780;6.084;2022-10-04T09:18:49;8.13;;;3.30;;
9188;SDS011;34313;50.780;6.084;2022-10-04T09:21:41;6.73;;;3.30;;
9188;SDS011;34313;50.780;6.084;2022-10-04T09:35:10;8.37;;;3.40;;
9188;SDS011;34313;50.780;6.084;2022-10-04T09:43:16;6.43;;;2.67;;
9188;SDS011;34313;50.780;6.084;2022-10-04T09:45:51;5.47;;;2.90;;
9188;SDS011;34313;50.780;6.084;2022-10-04T09:48:34;4.37;;;2.37;;
9188;SDS011;34313;50.780;6.084;2022-10-04T09:56:46;5.87;;;3.23;;
9188;SDS011;34313;50.780;6.084;2022-10-04T09:59:16;8.27;;;3.13;;
9188;SDS011;34313;50.780;6.084;2022-10-04T10:32:17;3.60;;;1.93;;
9188;SDS011;34313;50.780;6.084;2022-10-04T10:43:49;6.97;;;2.53;;
9188;SDS011;34313;50.780;6.084;2022-10-04T10:46:22;3.20;;;2.27;;
9188;SDS011;34313;50.780;6.084;2022-10-04T10:48:53;3.87;;;2.57;;
9188;SDS011;34313;50.780;6.084;2022-10-04T10:54:15;5.63;;;2.93;;
9188;SDS011;34313;50.780;6.084;2022-10-04T11:11:35;8.93;;;2.87;;
9188;SDS011;34313;50.780;6.084;2022-10-04T11:22:32;4.17;;;2.07;;
9188;SDS011;34313;50.780;6.084;2022-10-04T11:36:04;4.03;;;2.30;;
9188;SDS011;34313;50.780;6.084;2022-10-04T11:44:10;3.23;;;2.23;;
9188;SDS011;34313;50.780;6.084;2022-10-04T11:46:46;3.30;;;1.90;;
9188;SDS011;34313;50.780;6.084;2022-10-04T11:53:07;2.70;;;1.87;;
9188;SDS011;34313;50.780;6.084;2022-10-04T12:04:06;3.90;;;1.77;;
9188;SDS011;34313;50.780;6.084;2022-10-04T12:11:43;2.20;;;1.60;;
9188;SDS011;34313;50.780;6.084;2022-10-04T12:23:25;2.13;;;1.50;;
9188;SDS011;34313;50.780;6.084;2022-10-04T12:31:45;3.73;;;1.97;;
9188;SDS011;34313;50.780;6.084;2022-10-04T12:37:15;2.50;;;1.80;;
9188;SDS011;34313;50.780;6.084;2022-10-04T12:45:26;1.83;;;1.73;;
9188;SDS011;34313;50.780;6.084;2022-10-04T12:48:35;3.43;;;1.80;;
9188;SDS011;34313;50.780;6.084;2022-10-04T12:56:13;3.80;;;2.30;;
9188;SDS011;34313;50.780;6.084;2022-10-04T13:04:30;9.00;;;2.30;;
9188;SDS011;34313;50.780;6.084;2022-10-04T13:12:34;1.87;;;1.60;;
9188;SDS011;34313;50.780;6.084;2022-10-04T13:21:02;3.87;;;2.07;;
9188;SDS011;34313;50.780;6.084;2022-10-04T13:28:57;6.17;;;3.00;;
9188;SDS011;34313;50.780;6.084;2022-10-04T13:39:54;9.10;;;2.90;;
9188;SDS011;34313;50.780;6.084;2022-10-04T13:53:33;11.23;;;3.57;;
9188;SDS011;34313;50.780;6.084;2022-10-04T13:59:28;5.80;;;2.80;;
9188;SDS011;34313;50.780;6.084;2022-10-04T14:10:19;3.53;;;2.80;;
9188;SDS011;34313;50.780;6.084;2022-10-04T14:35:45;3.67;;;2.53;;
9188;SDS011;34313;50.780;6.084;2022-10-04T14:54:35;5.57;;;2.63;;
9188;SDS011;34313;50.780;6.084;2022-10-04T15:06:50;6.10;;;2.40;;
9188;SDS011;34313;50.780;6.084;2022-10-04T15:25:49;4.83;;;3.40;;
9188;SDS011;34313;50.780;6.084;2022-10-04T15:39:39;4.00;;;3.00;;
9188;SDS011;34313;50.780;6.084;2022-10-04T15:47:24;7.17;;;3.30;;
9188;SDS011;34313;50.780;6.084;2022-10-04T15:53:02;7.27;;;2.90;;
9188;SDS011;34313;50.780;6.084;2022-10-04T15:58:12;5.90;;;3.83;;
9188;SDS011;34313;50.780;6.084;2022-10-04T16:04:29;4.83;;;2.67;;
9188;SDS011;34313;50.780;6.084;2022-10-04T16:12:30;3.93;;;2.50;;
9188;SDS011;34313;50.780;6.084;2022-10-04T16:18:12;4.20;;;2.40;;
9188;SDS011;34313;50.780;6.084;2022-10-04T16:31:54;5.30;;;3.10;;
9188;SDS011;34313;50.780;6.084;2022-10-04T16:42:22;4.03;;;3.20;;
9188;SDS011;34313;50.780;6.084;2022-10-04T16:45:23;5.43;;;3.13;;
9188;SDS011;34313;50.780;6.084;2022-10-04T16:50:57;4.93;;;3.60;;
9188;SDS011;34313;50.780;6.084;2022-10-04T17:14:56;7.17;;;4.83;;
9188;SDS011;34313;50.780;6.084;2022-10-04T17:17:53;10.17;;;3.90;;
9188;SDS011;34313;50.780;6.084;2022-10-04T17:34:30;7.73;;;4.80;;
9188;SDS011;34313;50.780;6.084;2022-10-04T17:42:39;7.60;;;4.97;;
9188;SDS011;34313;50.780;6.084;2022-10-04T17:54:16;10.77;;;7.83;;
9188;SDS011;34313;50.780;6.084;2022-10-04T17:59:40;11.10;;;6.30;;
9188;SDS011;34313;50.780;6.084;2022-10-04T18:02:13;8.27;;;6.07;;
9188;SDS011;34313;50.780;6.084;2022-10-04T18:04:52;7.03;;;5.40;;
9188;SDS011;34313;50.780;6.084;2022-10-04T18:07:30;7.97;;;5.10;;
9188;SDS011;34313;50.780;6.084;2022-10-04T18:13:04;7.20;;;5.50;;
9188;SDS011;34313;50.780;6.084;2022-10-04T18:18:06;10.13;;;5.53;;
9188;SDS011;34313;50.780;6.084;2022-10-04T18:20:44;7.70;;;5.23;;
9188;SDS011;34313;50.780;6.084;2022-10-04T18:23:28;8.27;;;4.70;;
9188;SDS011;34313;50.780;6.084;2022-10-04T18:26:00;8.60;;;5.10;;
9188;SDS011;34313;50.780;6.084;2022-10-04T18:28:41;6.10;;;4.93;;
9188;SDS011;34313;50.780;6.084;2022-10-04T18:31:27;10.13;;;5.37;;
9188;SDS011;34313;50.780;6.084;2022-10-04T18:33:53;7.67;;;5.00;;
9188;SDS011;34313;50.780;6.084;2022-10-04T18:36:26;8.17;;;5.50;;
9188;SDS011;34313;50.780;6.084;2022-10-04T18:39:00;7.53;;;5.07;;
9188;SDS011;34313;50.780;6.084;2022-10-04T18:41:35;11.00;;;5.50;;
9188;SDS011;34313;50.780;6.084;2022-10-04T18:44:16;8.50;;;6.10;;
9188;SDS011;34313;50.780;6.084;2022-10-04T18:46:48;7.70;;;5.30;;
9188;SDS011;34313;50.780;6.084;2022-10-04T18:49:20;9.43;;;5.40;;
9188;SDS011;34313;50.780;6.084;2022-10-04T18:57:32;6.87;;;6.00;;
9188;SDS011;34313;50.780;6.084;2022-10-04T19:00:24;12.17;;;5.70;;
9188;SDS011;34313;50.780;6.084;2022-10-04T19:14:27;8.13;;;5.93;;
9188;SDS011;34313;50.780;6.084;2022-10-04T19:17:00;12.83;;;6.00;;
9188;SDS011;34313;50.780;6.084;2022-10-04T19:19:52;9.43;;;6.50;;
9188;SDS011;34313;50.780;6.084;2022-10-04T19:46:55;9.43;;;6.10;;
9188;SDS011;34313;50.780;6.084;2022-10-04T19:49:45;6.93;;;5.00;;
9188;SDS011;34313;50.780;6.084;2022-10-04T19:54:59;9.03;;;6.27;;
9188;SDS011;34313;50.780;6.084;2022-10-04T19:57:35;8.60;;;5.60;;
9188;SDS011;34313;50.780;6.084;2022-10-04T20:00:02;6.77;;;5.53;;
9188;SDS011;34313;50.780;6.084;2022-10-04T20:02:46;10.20;;;5.93;;
9188;SDS011;34313;50.780;6.084;2022-10-04T20:05:16;15.13;;;5.97;;
9188;SDS011;34313;50.780;6.084;2022-10-04T20:07:49;6.20;;;5.47;;
9188;SDS011;34313;50.780;6.084;2022-10-04T20:10:35;9.17;;;5.93;;
9188;SDS011;34313;50.780;6.084;2022-10-04T20:26:03;9.60;;;5.00;;
9188;SDS011;34313;50.780;6.084;2022-10-04T20:31:04;8.00;;;5.30;;
9188;SDS011;34313;50.780;6.084;2022-10-04T20:43:59;9.50;;;5.23;;
9188;SDS011;34313;50.780;6.084;2022-10-04T20:46:26;9.30;;;5.60;;
9188;SDS011;34313;50.780;6.084;2022-10-04T20:49:03;9.10;;;5.50;;
9188;SDS011;34313;50.780;6.084;2022-10-04T20:51:30;6.30;;;5.00;;
9188;SDS011;34313;50.780;6.084;2022-10-04T20:53:58;6.53;;;5.10;;
9188;SDS011;34313;50.780;6.084;2022-10-04T20:59:00;6.70;;;5.23;;
9188;SDS011;34313;50.780;6.084;2022-10-04T21:01:28;11.37;;;5.53;;
9188;SDS011;34313;50.780;6.084;2022-10-04T21:06:59;9.80;;;5.50;;
9188;SDS011;34313;50.780;6.084;2022-10-04T21:09:27;11.27;;;5.87;;
9188;SDS011;34313;50.780;6.084;2022-10-04T21:11:55;9.07;;;5.47;;
9188;SDS011;34313;50.780;6.084;2022-10-04T21:14:21;8.40;;;5.67;;
9188;SDS011;34313;50.780;6.084;2022-10-04T21:16:59;5.60;;;4.90;;
9188;SDS011;34313;50.780;6.084;2022-10-04T21:21:57;8.40;;;5.90;;
9188;SDS011;34313;50.780;6.084;2022-10-04T21:26:55;8.60;;;4.90;;
9188;SDS011;34313;50.780;6.084;2022-10-04T21:29:21;8.00;;;5.53;;
9188;SDS011;34313;50.780;6.084;2022-10-04T21:31:46;11.23;;;5.23;;
9188;SDS011;34313;50.780;6.084;2022-10-04T21:34:12;10.80;;;5.63;;
9188;SDS011;34313;50.780;6.084;2022-10-04T21:36:37;8.60;;;5.73;;
9188;SDS011;34313;50.780;6.084;2022-10-04T21:39:03;8.13;;;5.90;;
9188;SDS011;34313;50.780;6.084;2022-10-04T21:41:28;9.40;;;6.03;;
9188;SDS011;34313;50.780;6.084;2022-10-04T21:43:53;7.40;;;6.00;;
9188;SDS011;34313;50.780;6.084;2022-10-04T21:46:19;10.50;;;5.77;;
9188;SDS011;34313;50.780;6.084;2022-10-04T21:48:44;8.70;;;6.20;;
9188;SDS011;34313;50.780;6.084;2022-10-04T21:51:09;10.53;;;6.60;;
9188;SDS011;34313;50.780;6.084;2022-10-04T21:53:35;10.43;;;6.60;;
9188;SDS011;34313;50.780;6.084;2022-10-04T21:56:00;8.20;;;6.30;;
9188;SDS011;34313;50.780;6.084;2022-10-04T21:58:27;10.80;;;5.90;;
9188;SDS011;34313;50.780;6.084;2022-10-04T22:00:52;12.47;;;6.63;;
9188;SDS011;34313;50.780;6.084;2022-10-04T22:03:18;8.93;;;5.67;;
9188;SDS011;34313;50.780;6.084;2022-10-04T22:05:43;11.90;;;6.77;;
9188;SDS011;34313;50.780;6.084;2022-10-04T22:08:09;10.17;;;6.50;;
9188;SDS011;34313;50.780;6.084;2022-10-04T22:10:34;10.00;;;6.00;;
9188;SDS011;34313;50.780;6.084;2022-10-04T22:12:59;12.10;;;6.30;;
9188;SDS011;34313;50.780;6.084;2022-10-04T22:15:25;7.13;;;6.33;;
9188;SDS011;34313;50.780;6.084;2022-10-04T22:17:52;8.50;;;6.73;;
9188;SDS011;34313;50.780;6.084;2022-10-04T22:20:18;9.30;;;6.40;;
9188;SDS011;34313;50.780;6.084;2022-10-04T22:22:43;9.17;;;6.13;;
9188;SDS011;34313;50.780;6.084;2022-10-04T22:25:12;10.47;;;6.70;;
9188;SDS011;34313;50.780;6.084;2022-10-04T22:27:39;12.00;;;6.50;;
9188;SDS011;34313;50.780;6.084;2022-10-04T22:30:06;8.87;;;6.97;;
9188;SDS011;34313;50.780;6.084;2022-10-04T22:32:54;13.87;;;6.73;;
9188;SDS011;34313;50.780;6.084;2022-10-04T22:35:21;7.63;;;6.67;;
9188;SDS011;34313;50.780;6.084;2022-10-04T22:37:47;10.57;;;7.00;;
9188;SDS011;34313;50.780;6.084;2022-10-04T22:42:43;8.17;;;6.17;;
9188;SDS011;34313;50.780;6.084;2022-10-04T22:48:10;19.07;;;7.57;;
9188;SDS011;34313;50.780;6.084;2022-10-04T22:50:39;9.70;;;6.50;;
9188;SDS011;34313;50.780;6.084;2022-10-04T22:53:11;8.27;;;6.80;;
9188;SDS011;34313;50.780;6.084;2022-10-04T22:55:40;14.73;;;6.57;;
9188;SDS011;34313;50.780;6.084;2022-10-04T22:58:05;9.80;;;6.80;;
9188;SDS011;34313;50.780;6.084;2022-10-04T23:00:31;8.37;;;6.10;;
9188;SDS011;34313;50.780;6.084;2022-10-04T23:02:56;8.60;;;7.20;;
9188;SDS011;34313;50.780;6.084;2022-10-04T23:05:21;8.47;;;6.67;;
9188;SDS011;34313;50.780;6.084;2022-10-04T23:07:47;11.03;;;7.20;;
9188;SDS011;34313;50.780;6.084;2022-10-04T23:10:15;9.70;;;6.80;;
9188;SDS011;34313;50.780;6.084;2022-10-04T23:12:46;12.00;;;6.67;;
9188;SDS011;34313;50.780;6.084;2022-10-04T23:15:17;10.50;;;7.27;;
9188;SDS011;34313;50.780;6.084;2022-10-04T23:17:44;9.83;;;7.47;;
9188;SDS011;34313;50.780;6.084;2022-10-04T23:20:19;12.60;;;8.07;;
9188;SDS011;34313;50.780;6.084;2022-10-04T23:22:45;12.30;;;7.03;;
9188;SDS011;34313;50.780;6.084;2022-10-04T23:25:20;9.97;;;7.40;;
9188;SDS011;34313;50.780;6.084;2022-10-04T23:27:50;11.10;;;7.97;;
9188;SDS011;34313;50.780;6.084;2022-10-04T23:30:16;11.00;;;7.53;;
9188;SDS011;34313;50.780;6.084;2022-10-04T23:32:44;10.83;;;6.73;;
9188;SDS011;34313;50.780;6.084;2022-10-04T23:35:18;10.17;;;7.03;;
9188;SDS011;34313;50.780;6.084;2022-10-04T23:37:47;7.73;;;6.93;;
9188;SDS011;34313;50.780;6.084;2022-10-04T23:40:14;7.90;;;7.10;;
9188;SDS011;34313;50.780;6.084;2022-10-04T23:42:42;14.77;;;8.50;;
9188;SDS011;34313;50.780;6.084;2022-10-04T23:45:14;10.50;;;7.80;;
9188;SDS011;34313;50.780;6.084;2022-10-04T23:47:44;9.70;;;7.30;;
9188;SDS011;34313;50.780;6.084;2022-10-04T23:50:18;13.23;;;7.50;;
9188;SDS011;34313;50.780;6.084;2022-10-04T23:52:47;8.27;;;7.00;;
9188;SDS011;34313;50.780;6.084;2022-10-04T23:55:23;13.80;;;8.10;;
9188;SDS011;34313;50.780;6.084;2022-10-04T23:57:52;10.77;;;6.93;;
